createdAt,value
2022-09-26T01:22:27.447Z,89.78
2022-09-26T04:00:55.937Z,90.94001
2022-09-26T04:11:11.120Z,90.96
2022-09-26T04:31:41.694Z,91.03
2022-09-26T04:47:06.544Z,91.08001
2022-09-26T04:52:14.448Z,91.06
2022-09-26T04:57:23.000Z,91.05
2022-09-26T05:02:30.649Z,91.02
2022-09-26T05:07:37.865Z,91.02
2022-09-26T05:12:45.256Z,91.02
2022-09-26T05:17:52.258Z,90.96
2022-09-26T05:23:00.252Z,90.99
2022-09-26T05:28:09.107Z,90.98001
2022-09-26T05:38:24.920Z,91.04
2022-09-26T05:43:33.909Z,91.06
2022-09-26T05:48:41.877Z,91.12
2022-09-26T05:53:49.688Z,91.16
2022-09-26T05:58:57.931Z,91.18
2022-09-26T06:04:05.422Z,91.18
2022-09-26T06:14:21.077Z,91.19
2022-09-26T06:19:30.175Z,91.19
2022-09-26T06:24:38.017Z,91.15001
2022-09-26T06:29:45.217Z,91.14
2022-09-26T06:34:53.102Z,91.11
2022-09-26T06:40:00.942Z,91.01001
2022-09-26T06:45:08.605Z,90.92
2022-09-26T06:50:17.221Z,90.83
2022-09-26T06:55:24.416Z,90.58001
2022-09-26T07:00:32.820Z,90.35
2022-09-26T07:05:41.686Z,90.04001
2022-09-26T07:10:49.262Z,89.68
2022-09-26T07:15:57.558Z,89.08
2022-09-26T07:21:06.708Z,88.48001
2022-09-26T07:26:13.381Z,87.96
2022-09-26T07:31:20.579Z,86.85
2022-09-26T07:36:29.919Z,86.54
2022-09-26T07:41:37.592Z,85.68
2022-09-26T07:46:44.783Z,84.81
2022-09-26T07:51:52.565Z,83.92
2022-09-26T07:57:00.265Z,82.85
2022-09-26T08:02:09.315Z,81.68
2022-09-26T08:07:17.590Z,80.07
2022-09-26T08:12:25.258Z,78.15
2022-09-26T08:17:34.720Z,76.74
2022-09-26T08:22:42.541Z,75.31
2022-09-26T08:27:51.518Z,74.18
2022-09-26T08:32:57.857Z,73.11
2022-09-26T08:38:05.708Z,71.7
2022-09-26T08:43:12.898Z,69.88
2022-09-26T08:48:21.341Z,68.82
2022-09-26T08:53:27.991Z,67.98
2022-09-26T08:58:35.826Z,67.59
2022-09-26T09:03:44.015Z,67.42
2022-09-26T09:08:50.881Z,67.46
2022-09-26T09:14:00.037Z,67.48001
2022-09-26T09:19:08.448Z,67.35
2022-09-26T09:24:14.975Z,66.37001
2022-09-26T09:29:21.613Z,65.16
2022-09-26T09:34:28.731Z,64.5
2022-09-26T09:39:36.124Z,63.25
2022-09-26T09:44:44.091Z,61.71
2022-09-26T09:49:52.020Z,60.49
2022-09-26T09:55:00.058Z,60.0
2022-09-26T10:00:06.700Z,58.9
2022-09-26T10:05:13.899Z,58.0
2022-09-26T10:10:21.417Z,58.26
2022-09-26T10:15:29.734Z,58.83
2022-09-26T10:20:37.373Z,59.39
2022-09-26T10:25:45.309Z,59.81
2022-09-26T10:30:53.693Z,59.85
2022-09-26T10:36:01.040Z,59.44
2022-09-26T10:41:08.096Z,58.48
2022-09-26T10:46:15.822Z,58.13
2022-09-26T10:51:22.502Z,58.23
2022-09-26T10:56:29.838Z,58.97
2022-09-26T11:01:36.577Z,59.66
2022-09-26T11:06:44.847Z,60.12
2022-09-26T11:11:54.489Z,59.72
2022-09-26T11:17:01.906Z,58.58
2022-09-26T11:22:11.392Z,57.68
2022-09-26T11:27:19.343Z,56.82
2022-09-26T11:32:26.541Z,56.4
2022-09-26T11:37:33.857Z,56.1
2022-09-26T11:42:45.636Z,55.66
2022-09-26T11:47:52.579Z,55.34
2022-09-26T11:53:01.448Z,55.33
2022-09-26T11:58:09.611Z,55.23
2022-09-26T12:03:17.513Z,55.54
2022-09-26T12:08:25.232Z,56.24
2022-09-26T12:13:33.336Z,57.18
2022-09-26T12:18:42.471Z,57.66
2022-09-26T12:23:51.168Z,57.66
2022-09-26T12:29:00.277Z,57.1
2022-09-26T12:34:07.555Z,56.63
2022-09-26T12:39:15.223Z,56.74
2022-09-26T12:44:22.779Z,56.78
2022-09-26T12:49:30.250Z,56.86
2022-09-26T12:54:37.768Z,56.8
2022-09-26T12:59:46.550Z,57.2
2022-09-26T13:04:54.013Z,56.98
2022-09-26T13:10:01.165Z,56.84
2022-09-26T13:15:08.822Z,56.58
2022-09-26T13:20:17.290Z,56.68
2022-09-26T13:25:24.516Z,57.0
2022-09-26T13:30:32.674Z,57.23
2022-09-26T13:35:39.822Z,57.28
2022-09-26T13:40:46.935Z,57.51
2022-09-26T13:45:54.874Z,57.81
2022-09-26T13:51:02.070Z,58.28
2022-09-26T13:56:09.853Z,58.41
2022-09-26T14:01:18.766Z,58.56
2022-09-26T14:06:26.743Z,58.64
2022-09-26T14:11:34.666Z,58.88
2022-09-26T14:16:42.018Z,59.01
2022-09-26T14:21:49.063Z,59.06
2022-09-26T14:26:56.260Z,59.5
2022-09-26T14:32:03.730Z,60.18
2022-09-26T14:37:12.189Z,60.73
2022-09-26T14:42:19.460Z,61.3
2022-09-26T14:47:27.186Z,62.12
2022-09-26T14:52:34.293Z,62.67
2022-09-26T14:57:40.807Z,62.9
2022-09-26T15:02:49.251Z,63.02
2022-09-26T15:07:57.604Z,63.01
2022-09-26T15:18:13.645Z,63.26
2022-09-26T15:23:19.915Z,63.2
2022-09-26T15:28:27.875Z,63.38
2022-09-26T15:33:35.825Z,63.36
2022-09-26T15:38:43.128Z,63.04
2022-09-26T15:43:50.614Z,62.9
2022-09-26T15:48:57.273Z,63.14
2022-09-26T15:54:04.941Z,63.45
